createdAt,value
2022-10-29T00:00:46.823Z,96.37
2022-10-29T00:01:46.947Z,96.47
2022-10-29T00:02:46.900Z,96.27
2022-10-29T00:03:46.785Z,96.17
2022-10-29T00:04:46.764Z,96.31
2022-10-29T00:05:46.754Z,96.42
2022-10-29T00:06:46.924Z,96.72
2022-10-29T00:07:46.735Z,96.72
2022-10-29T00:08:46.704Z,96.62
2022-10-29T00:09:46.707Z,96.82
2022-10-29T00:10:46.695Z,97.23
2022-10-29T00:11:46.831Z,97.53
2022-10-29T00:12:46.665Z,97.53
2022-10-29T00:13:46.645Z,97.63
2022-10-29T00:14:46.634Z,97.58
2022-10-29T00:15:46.623Z,97.58
2022-10-29T00:16:46.757Z,97.38
2022-10-29T00:17:46.605Z,97.49
2022-10-29T00:18:46.583Z,97.69
2022-10-29T00:19:46.571Z,97.28
2022-10-29T00:20:46.563Z,96.78
2022-10-29T00:21:46.676Z,96.67
2022-10-29T00:22:46.535Z,96.98
2022-10-29T00:23:46.514Z,96.67
2022-10-29T00:24:46.503Z,96.88
2022-10-29T00:25:46.484Z,96.98
2022-10-29T00:26:46.531Z,96.37
2022-10-29T00:27:46.464Z,96.07
2022-10-29T00:28:46.453Z,96.47
2022-10-29T00:29:46.442Z,96.27
2022-10-29T00:30:46.442Z,96.78
2022-10-29T00:31:46.602Z,96.88
2022-10-29T00:32:46.413Z,97.28
2022-10-29T00:33:46.402Z,96.98
2022-10-29T00:34:46.404Z,97.08
2022-10-29T00:35:46.363Z,97.18
2022-10-29T00:36:46.394Z,97.18
2022-10-29T00:37:46.333Z,97.18
2022-10-29T00:38:46.321Z,97.18
2022-10-29T00:39:46.312Z,97.34
2022-10-29T00:40:46.293Z,97.24
2022-10-29T00:41:46.390Z,97.34
2022-10-29T00:42:46.273Z,97.44
2022-10-29T00:43:46.253Z,97.54
2022-10-29T00:44:46.242Z,97.24
2022-10-29T00:45:46.237Z,97.44
2022-10-29T00:46:46.235Z,97.24
2022-10-29T00:47:46.205Z,97.24
2022-10-29T00:48:46.198Z,97.24
2022-10-29T00:49:46.174Z,97.34
2022-10-29T00:50:46.164Z,97.85
2022-10-29T00:51:46.225Z,98.05
2022-10-29T00:52:46.154Z,97.85
2022-10-29T00:53:46.137Z,98.00
2022-10-29T00:54:46.111Z,97.69
2022-10-29T00:55:46.093Z,97.39
2022-10-29T00:56:46.100Z,97.19
2022-10-29T00:57:46.091Z,96.98
2022-10-29T00:58:46.065Z,97.09
2022-10-29T00:59:46.091Z,96.98
2022-10-29T01:00:46.030Z,97.19
2022-10-29T01:01:46.094Z,97.05
2022-10-29T01:02:46.150Z,96.84
2022-10-29T01:03:45.993Z,96.84
2022-10-29T01:04:45.981Z,96.74
2022-10-29T01:05:45.962Z,96.54
2022-10-29T01:06:45.993Z,96.34
2022-10-29T01:07:45.933Z,96.23
2022-10-29T01:08:45.934Z,96.23
2022-10-29T01:09:45.921Z,96.13
2022-10-29T01:10:45.905Z,96.03
2022-10-29T01:11:45.900Z,96.23
2022-10-29T01:12:45.875Z,96.23
2022-10-29T01:13:45.852Z,96.23
2022-10-29T01:14:45.856Z,96.23
2022-10-29T01:15:45.839Z,96.34
2022-10-29T01:16:45.921Z,96.34
2022-10-29T01:17:45.806Z,96.34
2022-10-29T01:18:45.832Z,96.23
2022-10-29T01:19:45.782Z,96.34
2022-10-29T01:20:45.770Z,96.54
2022-10-29T01:21:45.825Z,96.64
2022-10-29T01:22:45.742Z,96.54
2022-10-29T01:23:45.723Z,97.05
2022-10-29T01:24:45.730Z,97.05
2022-10-29T01:25:45.703Z,96.74
2022-10-29T01:26:45.704Z,96.54
2022-10-29T01:27:45.674Z,96.38
2022-10-29T01:28:45.663Z,96.18
2022-10-29T01:29:45.654Z,95.98
2022-10-29T01:30:45.633Z,96.38
2022-10-29T01:31:45.737Z,96.18
2022-10-29T01:32:45.613Z,95.87
2022-10-29T01:33:45.595Z,95.92
2022-10-29T01:34:45.608Z,95.82
2022-10-29T01:35:45.571Z,95.86
2022-10-29T01:36:45.606Z,96.17
2022-10-29T01:37:45.550Z,96.57
2022-10-29T01:38:45.546Z,97.89
2022-10-29T01:39:45.522Z,98.80
2022-10-29T01:40:45.511Z,98.39
2022-10-29T01:41:45.541Z,98.39
2022-10-29T01:42:45.484Z,98.14
2022-10-29T01:43:45.462Z,98.03
2022-10-29T01:44:45.454Z,97.94
2022-10-29T01:45:45.432Z,97.83
2022-10-29T01:46:45.469Z,97.73
2022-10-29T01:47:45.425Z,97.73
2022-10-29T01:48:45.423Z,97.83
2022-10-29T01:49:45.413Z,97.88
2022-10-29T01:50:45.405Z,97.88
2022-10-29T01:51:45.370Z,97.98
2022-10-29T01:52:45.363Z,97.88
2022-10-29T01:53:45.343Z,97.88
2022-10-29T01:54:45.342Z,97.88
2022-10-29T01:55:45.302Z,98.28
2022-10-29T01:56:45.334Z,98.90
2022-10-29T01:57:45.282Z,98.79
2022-10-29T01:58:45.279Z,98.99
2022-10-29T01:59:55.466Z,99.24
2022-10-29T02:00:46.335Z,99.60
2022-10-29T02:01:45.285Z,99.91
2022-10-29T02:02:48.371Z,99.75
2022-10-29T02:03:45.202Z,99.99
2022-10-29T02:04:45.202Z,99.99
2022-10-29T02:05:45.180Z,99.99
2022-10-29T02:06:45.192Z,99.99
2022-10-29T02:07:45.153Z,99.99
2022-10-29T02:08:45.140Z,99.99
2022-10-29T02:09:45.132Z,99.99
2022-10-29T02:10:45.112Z,99.99
2022-10-29T02:11:45.135Z,99.99
2022-10-29T02:12:45.091Z,99.99
2022-10-29T02:13:45.081Z,99.99
2022-10-29T02:14:45.061Z,99.99
2022-10-29T02:15:45.041Z,99.99
2022-10-29T02:16:45.099Z,99.99
2022-10-29T02:17:45.011Z,99.99
2022-10-29T02:18:45.011Z,99.99
2022-10-29T02:19:45.012Z,99.99
2022-10-29T02:20:44.970Z,99.99
2022-10-29T02:21:45.073Z,99.99
2022-10-29T02:22:44.979Z,99.99
2022-10-29T02:23:44.931Z,99.99
2022-10-29T02:24:44.936Z,99.99
2022-10-29T02:25:44.955Z,99.99
2022-10-29T02:26:44.962Z,99.99
2022-10-29T02:27:44.902Z,99.99
2022-10-29T02:28:44.879Z,99.99
2022-10-29T02:29:44.870Z,99.99
2022-10-29T02:30:44.863Z,99.99
2022-10-29T02:31:44.895Z,99.99
2022-10-29T02:32:44.842Z,99.99
2022-10-29T02:33:46.058Z,99.99
2022-10-29T02:34:44.801Z,99.99
2022-10-29T02:35:44.782Z,99.99
2022-10-29T02:36:44.791Z,99.99
2022-10-29T02:37:44.772Z,99.99
2022-10-29T02:38:44.750Z,99.99
2022-10-29T02:39:44.741Z,99.99
2022-10-29T02:40:44.729Z,99.99
2022-10-29T02:41:44.764Z,99.99
2022-10-29T02:42:44.700Z,99.99
2022-10-29T02:43:44.680Z,99.99
2022-10-29T02:44:44.683Z,99.99
2022-10-29T02:45:44.640Z,99.99
2022-10-29T02:46:44.702Z,99.99
2022-10-29T02:47:44.633Z,99.99
2022-10-29T02:48:44.618Z,99.99
2022-10-29T02:49:44.599Z,99.99
2022-10-29T02:50:44.590Z,99.99
2022-10-29T02:51:44.609Z,99.99
2022-10-29T02:52:44.569Z,99.99
2022-10-29T02:53:44.549Z,99.99
2022-10-29T02:54:44.540Z,99.99
2022-10-29T02:55:44.519Z,99.99
2022-10-29T02:56:44.514Z,99.99
2022-10-29T02:57:44.504Z,99.99
2022-10-29T02:58:44.480Z,99.99
2022-10-29T02:59:44.477Z,99.99
2022-10-29T03:00:44.452Z,99.99
2022-10-29T03:01:44.712Z,99.99
2022-10-29T03:02:44.525Z,99.99
2022-10-29T03:03:44.421Z,99.99
2022-10-29T03:04:44.416Z,99.99
2022-10-29T03:05:48.903Z,99.99
2022-10-29T03:06:45.370Z,99.99
2022-10-29T03:07:44.379Z,99.99
2022-10-29T03:08:44.350Z,99.99
2022-10-29T03:09:44.340Z,99.99
2022-10-29T03:10:44.326Z,99.99
2022-10-29T03:11:44.301Z,99.99
2022-10-29T03:12:44.320Z,99.99
2022-10-29T03:13:44.305Z,99.99
2022-10-29T03:14:44.276Z,99.99
2022-10-29T03:15:44.259Z,99.99
2022-10-29T03:16:44.247Z,99.99
2022-10-29T03:17:44.246Z,99.99
2022-10-29T03:18:44.237Z,99.99
2022-10-29T03:19:44.199Z,99.99
2022-10-29T03:20:44.200Z,99.99
2022-10-29T03:21:44.258Z,99.99
2022-10-29T03:22:44.189Z,99.99
2022-10-29T03:23:44.151Z,99.99
2022-10-29T03:24:44.148Z,99.99
2022-10-29T03:25:44.118Z,99.99
2022-10-29T03:26:44.121Z,99.99
2022-10-29T03:27:44.108Z,99.99
2022-10-29T03:28:44.089Z,99.99
2022-10-29T03:29:44.097Z,99.99
2022-10-29T03:30:44.058Z,99.99
2022-10-29T03:31:44.142Z,99.99
2022-10-29T03:32:44.047Z,99.99
2022-10-29T03:33:44.018Z,99.99
2022-10-29T03:34:44.009Z,99.99
2022-10-29T03:35:44.011Z,99.99
2022-10-29T03:36:43.989Z,99.99
2022-10-29T03:37:43.968Z,99.99
2022-10-29T03:38:43.946Z,99.99
2022-10-29T03:39:43.940Z,99.99
2022-10-29T03:40:43.926Z,99.99
2022-10-29T03:41:43.909Z,99.99
2022-10-29T03:42:43.929Z,99.99
2022-10-29T03:43:43.910Z,99.99
2022-10-29T03:44:43.870Z,99.99
2022-10-29T03:45:43.848Z,99.99
2022-10-29T03:46:43.945Z,99.99
2022-10-29T03:47:43.846Z,99.99
2022-10-29T03:48:43.817Z,99.99
2022-10-29T03:49:43.808Z,99.99
2022-10-29T03:50:43.826Z,99.99
2022-10-29T03:51:43.898Z,99.99
2022-10-29T03:52:43.781Z,99.99
2022-10-29T03:53:43.750Z,99.99
2022-10-29T03:54:43.754Z,99.99
2022-10-29T03:55:43.719Z,99.99
2022-10-29T03:56:43.789Z,99.99
2022-10-29T03:57:43.710Z,99.99
2022-10-29T03:58:43.688Z,99.99
2022-10-29T03:59:45.923Z,99.99
2022-10-29T04:00:43.670Z,99.99
2022-10-29T04:01:43.828Z,99.99
2022-10-29T04:02:43.730Z,99.99
2022-10-29T04:03:43.617Z,99.99
2022-10-29T04:04:43.618Z,99.99
2022-10-29T04:05:43.588Z,99.99
2022-10-29T04:06:43.588Z,99.99
2022-10-29T04:07:43.582Z,99.99
2022-10-29T04:08:43.559Z,99.99
2022-10-29T04:09:43.536Z,99.99
2022-10-29T04:10:43.527Z,99.99
2022-10-29T04:11:43.520Z,99.99
2022-10-29T04:12:43.526Z,99.99
2022-10-29T04:13:43.487Z,99.99
2022-10-29T04:14:45.683Z,99.99
2022-10-29T04:15:43.461Z,99.99
2022-10-29T04:16:43.446Z,99.99
2022-10-29T04:17:43.449Z,99.99
2022-10-29T04:18:43.426Z,99.99
2022-10-29T04:19:43.425Z,99.99
2022-10-29T04:22:31.669Z,99.99
2022-10-29T04:28:37.268Z,99.99
2022-10-29T04:28:44.568Z,99.99
2022-10-29T04:29:43.289Z,99.99
2022-10-29T04:30:43.266Z,99.99
2022-10-29T04:31:43.255Z,99.99
2022-10-29T04:32:43.266Z,99.99
2022-10-29T04:33:43.233Z,99.99
2022-10-29T04:34:43.224Z,99.99
2022-10-29T04:35:43.206Z,99.99
2022-10-29T04:36:43.185Z,99.99
2022-10-29T04:37:43.184Z,99.99
2022-10-29T04:38:43.183Z,99.99
2022-10-29T04:39:43.146Z,99.99
2022-10-29T04:40:43.146Z,99.99
2022-10-29T04:41:43.135Z,99.99
2022-10-29T04:42:43.134Z,99.99
2022-10-29T04:43:43.095Z,99.99
2022-10-29T04:44:43.082Z,99.99
2022-10-29T04:46:43.144Z,99.99
2022-10-29T04:47:43.054Z,99.99
2022-10-29T04:48:43.092Z,99.99
2022-10-29T04:49:43.023Z,99.99
2022-10-29T04:50:43.005Z,99.99
2022-10-29T04:51:42.988Z,99.99
2022-10-29T04:52:42.995Z,99.99
2022-10-29T04:53:42.963Z,99.99
2022-10-29T04:54:42.965Z,99.99
2022-10-29T04:55:42.935Z,99.99
2022-10-29T04:56:42.932Z,99.99
2022-10-29T04:57:42.936Z,99.99
2022-10-29T04:58:42.925Z,99.99
2022-10-29T04:59:42.904Z,99.99
2022-10-29T05:00:42.950Z,99.99
2022-10-29T05:01:42.916Z,99.99
2022-10-29T05:02:42.873Z,99.99
2022-10-29T05:03:42.845Z,99.99
2022-10-29T05:04:42.824Z,99.99
2022-10-29T05:05:42.825Z,99.99
2022-10-29T05:06:42.845Z,99.99
2022-10-29T05:07:42.802Z,99.99
2022-10-29T05:08:42.783Z,99.99
2022-10-29T05:09:42.771Z,99.99
2022-10-29T05:10:42.754Z,99.99
2022-10-29T05:11:42.755Z,99.99
2022-10-29T05:12:42.732Z,99.99
2022-10-29T05:13:42.714Z,99.99
2022-10-29T05:14:42.704Z,99.99
2022-10-29T05:15:42.692Z,99.99
2022-10-29T05:16:42.708Z,99.99
2022-10-29T05:17:42.682Z,99.99
2022-10-29T05:18:42.645Z,99.99
2022-10-29T05:19:42.643Z,99.99
2022-10-29T05:20:42.620Z,99.99
2022-10-29T05:21:42.612Z,99.99
2022-10-29T05:22:42.612Z,99.99
2022-10-29T05:23:42.592Z,99.99
2022-10-29T05:24:42.573Z,99.99
2022-10-29T05:25:42.564Z,99.99
2022-10-29T05:26:42.553Z,99.99
2022-10-29T05:27:42.551Z,99.99
2022-10-29T05:28:42.521Z,99.99
2022-10-29T05:29:42.503Z,99.99
2022-10-29T05:30:42.493Z,99.99
2022-10-29T05:31:42.483Z,99.99
2022-10-29T05:32:42.497Z,99.99
2022-10-29T05:33:42.455Z,99.99
2022-10-29T05:34:44.485Z,99.99
2022-10-29T05:35:42.421Z,99.99
2022-10-29T05:36:42.525Z,99.99
2022-10-29T05:37:42.421Z,99.99
2022-10-29T05:38:42.381Z,99.99
2022-10-29T05:39:42.372Z,99.99
2022-10-29T05:40:42.703Z,99.99
2022-10-29T05:41:42.403Z,99.99
2022-10-29T05:42:47.160Z,99.99
2022-10-29T05:43:43.321Z,99.99
2022-10-29T05:44:42.320Z,99.99
2022-10-29T05:45:42.473Z,99.99
2022-10-29T05:46:42.364Z,99.99
2022-10-29T05:47:42.284Z,99.99
2022-10-29T05:48:42.254Z,99.99
2022-10-29T05:49:42.241Z,99.99
2022-10-29T05:50:42.407Z,99.99
2022-10-29T05:51:42.248Z,99.99
2022-10-29T05:52:42.218Z,99.99
2022-10-29T05:53:42.192Z,99.99
2022-10-29T05:54:42.198Z,99.99
2022-10-29T05:55:42.170Z,99.99
2022-10-29T05:56:42.171Z,99.99
2022-10-29T05:57:42.151Z,99.99
2022-10-29T05:58:42.121Z,99.99
2022-10-29T05:59:42.110Z,99.99
2022-10-29T06:00:42.324Z,99.99
2022-10-29T06:01:42.192Z,99.99
2022-10-29T06:02:42.156Z,99.99
2022-10-29T06:03:42.119Z,99.99
2022-10-29T06:04:42.041Z,99.99
2022-10-29T06:05:42.041Z,99.99
2022-10-29T06:06:42.249Z,99.99
2022-10-29T06:07:43.348Z,99.99
2022-10-29T06:08:42.002Z,99.99
2022-10-29T06:09:41.981Z,99.99
2022-10-29T06:10:41.987Z,99.99
2022-10-29T06:11:41.978Z,99.99
2022-10-29T06:12:41.947Z,99.99
2022-10-29T06:13:41.935Z,99.99
2022-10-29T06:14:41.919Z,99.99
2022-10-29T06:15:41.909Z,99.99
2022-10-29T06:16:42.026Z,99.99
2022-10-29T06:17:41.888Z,99.99
2022-10-29T06:18:41.859Z,99.99
2022-10-29T06:19:41.861Z,99.99
2022-10-29T06:20:41.839Z,99.99
2022-10-29T06:21:41.872Z,99.99
2022-10-29T06:22:41.810Z,99.99
2022-10-29T06:23:41.814Z,99.99
2022-10-29T06:24:41.787Z,99.99
2022-10-29T06:25:41.792Z,99.99
2022-10-29T06:26:41.770Z,99.99
2022-10-29T06:27:41.787Z,99.99
2022-10-29T06:28:41.742Z,99.99
2022-10-29T06:29:41.754Z,99.99
2022-10-29T06:30:41.707Z,99.99
2022-10-29T06:31:41.804Z,99.99
2022-10-29T06:32:41.694Z,99.99
2022-10-29T06:33:41.677Z,99.99
2022-10-29T06:34:41.658Z,99.99
2022-10-29T06:35:41.646Z,99.99
2022-10-29T06:36:41.643Z,99.99
2022-10-29T06:37:41.663Z,99.99
2022-10-29T06:38:41.607Z,99.99
2022-10-29T06:39:41.596Z,99.99
2022-10-29T06:40:41.576Z,99.99
2022-10-29T06:41:41.566Z,99.99
2022-10-29T06:42:41.565Z,99.99
2022-10-29T06:43:41.548Z,99.99
2022-10-29T06:44:41.525Z,99.99
2022-10-29T06:45:41.516Z,99.99
2022-10-29T06:46:41.496Z,99.99
2022-10-29T06:47:41.506Z,99.99
2022-10-29T06:48:41.476Z,99.99
2022-10-29T06:49:41.464Z,99.99
2022-10-29T06:50:41.447Z,99.99
2022-10-29T06:51:41.481Z,99.99
2022-10-29T06:52:41.436Z,99.99
2022-10-29T06:53:41.446Z,99.99
2022-10-29T06:54:41.400Z,99.99
2022-10-29T06:55:41.391Z,99.99
2022-10-29T06:56:41.387Z,99.99
2022-10-29T06:57:41.374Z,99.99
2022-10-29T06:58:41.341Z,99.99
2022-10-29T06:59:41.335Z,99.99
2022-10-29T07:00:41.448Z,99.99
2022-10-29T07:01:41.366Z,99.99
2022-10-29T07:02:41.296Z,99.99
2022-10-29T07:03:41.307Z,99.99
2022-10-29T07:04:41.256Z,99.99
2022-10-29T07:05:41.254Z,99.99
2022-10-29T07:06:41.316Z,99.99
2022-10-29T07:07:41.248Z,99.99
2022-10-29T07:08:41.225Z,99.99
2022-10-29T07:09:41.204Z,99.99
2022-10-29T07:10:41.187Z,99.99
2022-10-29T07:11:41.194Z,99.99
2022-10-29T07:12:41.167Z,99.99
2022-10-29T07:13:41.148Z,99.99
2022-10-29T07:14:41.125Z,99.99
2022-10-29T07:15:41.125Z,99.99
2022-10-29T07:16:41.105Z,99.99
2022-10-29T07:17:41.114Z,99.99
2022-10-29T07:18:41.183Z,99.99
2022-10-29T07:19:41.072Z,99.99
2022-10-29T07:20:41.067Z,99.99
2022-10-29T07:21:41.046Z,99.99
2022-10-29T07:22:41.034Z,99.99
2022-10-29T07:23:41.023Z,99.99
2022-10-29T07:24:41.001Z,99.99
2022-10-29T07:25:40.997Z,99.99
2022-10-29T07:26:40.986Z,99.99
2022-10-29T07:27:41.017Z,99.99
2022-10-29T07:28:40.964Z,99.99
2022-10-29T07:29:40.934Z,99.99
2022-10-29T07:30:40.914Z,99.99
2022-10-29T07:31:40.931Z,99.99
2022-10-29T07:32:40.894Z,99.99
2022-10-29T07:33:40.894Z,99.99
2022-10-29T07:34:40.887Z,99.99
2022-10-29T07:35:40.862Z,99.99
2022-10-29T07:36:40.971Z,99.99
2022-10-29T07:37:40.835Z,99.99
2022-10-29T07:38:40.813Z,99.99
2022-10-29T07:39:40.807Z,99.99
2022-10-29T07:40:40.832Z,99.99
2022-10-29T07:41:40.946Z,99.99
2022-10-29T07:42:40.764Z,99.99
2022-10-29T07:43:40.763Z,99.99
2022-10-29T07:44:40.743Z,99.99
2022-10-29T07:45:40.735Z,99.99
2022-10-29T07:46:40.746Z,99.99
2022-10-29T07:47:40.693Z,99.99
2022-10-29T07:48:40.684Z,99.99
2022-10-29T07:49:40.703Z,99.99
2022-10-29T07:50:40.664Z,99.99
2022-10-29T07:51:40.673Z,99.99
2022-10-29T07:52:40.623Z,99.99
2022-10-29T07:53:40.638Z,99.99
2022-10-29T07:54:40.663Z,99.99
2022-10-29T07:55:40.595Z,99.99
2022-10-29T07:56:43.718Z,99.99
2022-10-29T07:57:41.583Z,99.99
2022-10-29T07:58:40.553Z,99.99
2022-10-29T07:59:40.544Z,99.99
2022-10-29T08:00:40.619Z,99.99
2022-10-29T08:01:40.609Z,99.99
2022-10-29T08:02:40.504Z,99.99
2022-10-29T08:03:40.493Z,99.99
2022-10-29T08:04:40.471Z,99.99
2022-10-29T08:05:42.689Z,99.96
2022-10-29T08:06:40.516Z,99.76
2022-10-29T08:07:40.461Z,99.96
2022-10-29T08:08:40.457Z,99.86
2022-10-29T08:09:40.432Z,99.86
2022-10-29T08:10:40.426Z,99.76
2022-10-29T08:11:40.485Z,99.99
2022-10-29T08:12:40.372Z,99.55
2022-10-29T08:13:40.379Z,99.55
2022-10-29T08:14:40.341Z,99.46
2022-10-29T08:15:40.335Z,99.51
2022-10-29T08:16:40.473Z,99.30
2022-10-29T08:17:40.319Z,99.30
2022-10-29T08:18:40.292Z,99.30
2022-10-29T08:19:40.283Z,99.10
2022-10-29T08:20:40.263Z,99.10
2022-10-29T08:21:40.261Z,98.90
2022-10-29T08:22:40.254Z,98.90
2022-10-29T08:23:40.231Z,98.55
2022-10-29T08:24:40.281Z,98.25
2022-10-29T08:25:40.202Z,98.05
2022-10-29T08:26:40.192Z,97.60
2022-10-29T08:27:40.298Z,97.69
2022-10-29T08:28:40.171Z,97.05
2022-10-29T08:29:40.164Z,96.54
2022-10-29T08:30:40.289Z,96.39
2022-10-29T08:31:40.122Z,95.78
2022-10-29T08:32:40.130Z,95.68
2022-10-29T08:33:40.101Z,94.93
2022-10-29T08:34:40.082Z,95.34
2022-10-29T08:35:40.076Z,94.73
2022-10-29T08:36:40.051Z,94.59
2022-10-29T08:37:40.054Z,94.08
2022-10-29T08:38:40.022Z,93.68
2022-10-29T08:39:40.012Z,93.23
2022-10-29T08:40:40.009Z,93.43
2022-10-29T08:41:40.017Z,92.93
2022-10-29T08:42:39.972Z,92.82
2022-10-29T08:43:44.602Z,93.13
2022-10-29T08:44:40.942Z,92.62
2022-10-29T08:45:39.944Z,92.93
2022-10-29T08:46:39.923Z,93.23
2022-10-29T08:47:39.921Z,93.13
2022-10-29T08:48:39.900Z,93.23
2022-10-29T08:49:39.883Z,93.43
2022-10-29T08:50:39.882Z,93.68
2022-10-29T08:51:39.853Z,93.53
2022-10-29T08:52:48.235Z,93.63
2022-10-29T08:53:40.830Z,93.93
2022-10-29T08:54:39.821Z,93.33
2022-10-29T08:55:39.801Z,93.43
2022-10-29T08:56:39.793Z,92.93
2022-10-29T08:57:39.793Z,92.93
2022-10-29T08:58:39.771Z,93.13
2022-10-29T08:59:39.752Z,92.68
2022-10-29T09:00:39.789Z,92.58
2022-10-29T09:01:39.805Z,92.38
2022-10-29T09:02:39.734Z,91.77
2022-10-29T09:03:39.702Z,91.83
2022-10-29T09:04:39.691Z,91.93
2022-10-29T09:05:39.701Z,92.23
2022-10-29T09:06:39.744Z,91.28
2022-10-29T09:07:39.661Z,91.18
2022-10-29T09:08:39.634Z,90.68
2022-10-29T09:09:39.612Z,89.97
2022-10-29T09:10:39.611Z,89.23
2022-10-29T09:11:39.592Z,89.63
2022-10-29T09:12:39.601Z,89.23
2022-10-29T09:13:39.714Z,88.68
2022-10-29T09:14:39.583Z,88.78
2022-10-29T09:15:39.543Z,88.58
2022-10-29T09:17:39.559Z,88.23
2022-10-29T09:18:39.564Z,87.73
2022-10-29T09:19:39.524Z,87.53
2022-10-29T09:20:39.513Z,87.83
2022-10-29T09:21:39.474Z,87.73
2022-10-29T09:22:39.503Z,88.03
2022-10-29T09:23:39.442Z,87.33
2022-10-29T09:24:39.440Z,87.43
2022-10-29T09:25:39.474Z,87.02
2022-10-29T09:26:39.420Z,87.33
2022-10-29T09:27:39.414Z,87.93
2022-10-29T09:28:39.402Z,87.79
2022-10-29T09:29:39.369Z,86.68
2022-10-29T09:30:39.375Z,86.08
2022-10-29T09:31:39.354Z,86.08
2022-10-29T09:32:39.371Z,86.28
2022-10-29T09:33:39.352Z,86.48
2022-10-29T09:34:39.324Z,86.94
2022-10-29T09:35:39.311Z,86.08
2022-10-29T09:36:39.291Z,85.88
2022-10-29T09:37:39.303Z,86.08
2022-10-29T09:38:39.252Z,85.84
2022-10-29T09:39:39.294Z,86.85
2022-10-29T09:40:39.273Z,85.84
2022-10-29T09:41:39.253Z,86.04
2022-10-29T09:42:39.231Z,86.54
2022-10-29T09:43:39.205Z,86.80
2022-10-29T09:44:39.173Z,86.50
2022-10-29T09:45:39.153Z,85.80
2022-10-29T09:46:39.192Z,86.40
2022-10-29T09:47:39.163Z,85.50
2022-10-29T09:48:39.124Z,85.19
2022-10-29T09:49:39.105Z,85.19
2022-10-29T09:50:39.112Z,85.33
2022-10-29T09:51:39.094Z,85.84
2022-10-29T09:52:39.113Z,86.04
2022-10-29T09:53:39.064Z,86.54
2022-10-29T09:54:39.055Z,86.65
2022-10-29T09:55:39.043Z,86.74
2022-10-29T09:56:39.034Z,87.04
2022-10-29T09:57:39.026Z,87.04
2022-10-29T09:58:39.015Z,86.85
2022-10-29T09:59:38.985Z,86.94
2022-10-29T10:00:38.963Z,86.54
2022-10-29T10:01:38.962Z,87.04
2022-10-29T10:02:38.994Z,86.74
2022-10-29T10:03:38.913Z,87.15
2022-10-29T10:04:38.912Z,87.35
2022-10-29T10:05:38.891Z,86.44
2022-10-29T10:06:40.673Z,86.65
2022-10-29T10:07:38.874Z,86.85
2022-10-29T10:08:38.854Z,86.94
2022-10-29T10:09:38.838Z,87.15
2022-10-29T10:10:38.824Z,86.85
2022-10-29T10:11:38.823Z,86.65
2022-10-29T10:12:38.813Z,86.34
2022-10-29T10:13:38.784Z,86.74
2022-10-29T10:14:38.773Z,86.34
2022-10-29T10:15:38.762Z,86.54
2022-10-29T10:16:38.773Z,86.74
2022-10-29T10:17:38.763Z,87.04
2022-10-29T10:18:38.762Z,86.65
2022-10-29T10:19:38.705Z,87.15
2022-10-29T10:20:38.694Z,86.24
2022-10-29T10:21:38.674Z,86.94
2022-10-29T10:22:38.675Z,86.85
2022-10-29T10:23:38.656Z,86.74
2022-10-29T10:24:38.645Z,87.24
2022-10-29T10:25:38.661Z,86.74
2022-10-29T10:26:38.624Z,86.85
2022-10-29T10:27:38.614Z,86.34
2022-10-29T10:28:38.595Z,86.10
2022-10-29T10:29:38.574Z,85.60
2022-10-29T10:30:38.566Z,85.56
2022-10-29T10:31:38.546Z,86.62
2022-10-29T10:32:38.656Z,85.08
2022-10-29T10:33:38.526Z,83.87
2022-10-29T10:34:38.527Z,83.43
2022-10-29T10:35:38.506Z,82.59
2022-10-29T10:36:38.620Z,81.88
2022-10-29T10:37:38.514Z,81.93
2022-10-29T10:38:38.455Z,82.32
2022-10-29T10:39:38.445Z,81.93
2022-10-29T10:40:38.436Z,82.26
2022-10-29T10:41:38.454Z,83.07
2022-10-29T10:42:38.455Z,84.01
2022-10-29T10:43:38.394Z,84.71
2022-10-29T10:44:38.387Z,84.31
2022-10-29T10:45:38.364Z,85.31
2022-10-29T10:46:38.364Z,84.35
2022-10-29T10:47:38.365Z,84.75
2022-10-29T10:48:38.337Z,85.16
2022-10-29T10:49:38.315Z,85.86
2022-10-29T10:50:38.314Z,85.05
2022-10-29T10:51:38.283Z,85.56
2022-10-29T10:52:38.284Z,85.61
2022-10-29T10:53:38.256Z,85.11
2022-10-29T10:54:38.396Z,85.41
2022-10-29T10:55:38.235Z,85.46
2022-10-29T10:56:38.235Z,85.56
2022-10-29T10:57:38.225Z,85.75
2022-10-29T10:58:38.207Z,85.66
2022-10-29T10:59:38.194Z,85.75
2022-10-29T11:00:38.233Z,86.06
2022-10-29T11:01:38.379Z,86.26
2022-10-29T11:02:38.163Z,86.36
2022-10-29T11:03:38.139Z,86.66
2022-10-29T11:04:38.125Z,86.46
2022-10-29T11:05:38.109Z,86.16
2022-10-29T11:06:38.107Z,86.16
2022-10-29T11:07:38.087Z,86.50
2022-10-29T11:08:38.075Z,87.87
2022-10-29T11:09:38.053Z,86.36
2022-10-29T11:10:38.057Z,86.66
2022-10-29T11:11:38.029Z,86.66
2022-10-29T11:12:38.037Z,86.46
2022-10-29T11:13:37.997Z,86.72
2022-10-29T11:14:38.032Z,86.92
2022-10-29T11:15:37.973Z,85.82
2022-10-29T11:16:37.994Z,86.22
2022-10-29T11:17:37.966Z,85.22
2022-10-29T11:18:37.940Z,86.02
2022-10-29T11:19:37.921Z,85.82
2022-10-29T11:20:37.915Z,85.47
2022-10-29T11:21:37.896Z,84.88
2022-10-29T11:22:37.905Z,84.77
2022-10-29T11:23:37.867Z,84.57
2022-10-29T11:24:37.860Z,84.47
2022-10-29T11:25:37.861Z,84.77
2022-10-29T11:26:37.864Z,85.08
2022-10-29T11:27:37.834Z,85.97
2022-10-29T11:28:37.807Z,85.27
2022-10-29T11:29:37.788Z,86.08
2022-10-29T11:30:37.817Z,85.58
2022-10-29T11:31:37.783Z,84.97
2022-10-29T11:32:37.780Z,84.83
2022-10-29T11:33:37.826Z,85.13
2022-10-29T11:34:37.750Z,83.99
2022-10-29T11:35:37.725Z,83.39
2022-10-29T11:36:37.718Z,85.55
2022-10-29T11:37:37.707Z,82.85
2022-10-29T11:38:37.776Z,83.91
2022-10-29T11:39:37.678Z,83.31
2022-10-29T11:40:37.662Z,82.91
2022-10-29T11:41:37.708Z,83.31
2022-10-29T11:42:37.628Z,82.71
2022-10-29T11:43:37.616Z,82.15
2022-10-29T11:44:37.588Z,82.45
2022-10-29T11:45:37.591Z,83.05
2022-10-29T11:46:37.643Z,82.75
2022-10-29T11:47:37.580Z,83.59
2022-10-29T11:48:37.542Z,83.79
2022-10-29T11:49:37.536Z,83.99
2022-10-29T11:50:37.518Z,84.29
2022-10-29T11:51:37.596Z,85.99
2022-10-29T11:52:37.509Z,84.29
2022-10-29T11:53:37.478Z,83.79
2022-10-29T11:54:37.469Z,83.79
2022-10-29T11:55:37.458Z,83.69
2022-10-29T11:56:37.448Z,84.09
2022-10-29T11:57:37.450Z,84.19
2022-10-29T11:58:40.544Z,84.59
2022-10-29T11:59:37.406Z,83.19
2022-10-29T12:00:37.391Z,82.89
2022-10-29T12:01:37.466Z,82.79
2022-10-29T12:02:37.378Z,83.09
2022-10-29T12:03:37.361Z,82.59
2022-10-29T12:04:37.381Z,82.69
2022-10-29T12:05:37.369Z,82.49
2022-10-29T12:06:37.322Z,82.95
2022-10-29T12:07:37.344Z,82.24
2022-10-29T12:08:37.328Z,82.59
2022-10-29T12:09:37.298Z,83.25
2022-10-29T12:10:37.270Z,82.05
2022-10-29T12:11:42.979Z,83.25
2022-10-29T12:12:38.251Z,82.31
2022-10-29T12:13:37.223Z,82.61
2022-10-29T12:14:37.222Z,82.11
2022-10-29T12:15:37.197Z,82.27
2022-10-29T12:16:37.189Z,83.27
2022-10-29T12:17:37.223Z,81.77
2022-10-29T12:18:37.150Z,81.87
2022-10-29T12:19:37.141Z,81.03
2022-10-29T12:20:37.130Z,79.43
2022-10-29T12:21:37.133Z,79.23
2022-10-29T12:22:37.123Z,78.83
2022-10-29T12:23:37.102Z,78.93
2022-10-29T12:24:37.071Z,79.13
2022-10-29T12:25:37.064Z,79.03
2022-10-29T12:26:37.051Z,78.63
2022-10-29T12:27:37.059Z,80.83
2022-10-29T12:28:37.041Z,79.23
2022-10-29T12:29:37.013Z,78.53
2022-10-29T12:30:36.997Z,78.49
2022-10-29T12:31:37.000Z,79.49
2022-10-29T12:32:36.980Z,78.89
2022-10-29T12:33:36.952Z,78.36
2022-10-29T12:34:36.941Z,77.69
2022-10-29T12:35:36.928Z,79.29
2022-10-29T12:36:37.041Z,77.69
2022-10-29T12:37:36.911Z,77.89
2022-10-29T12:38:36.883Z,77.69
2022-10-29T12:39:36.872Z,77.89
2022-10-29T12:40:36.864Z,77.39
2022-10-29T12:41:36.871Z,77.39
2022-10-29T12:42:36.842Z,77.49
2022-10-29T12:43:36.872Z,77.03
2022-10-29T12:44:39.044Z,78.49
2022-10-29T12:45:53.088Z,77.79
2022-10-29T12:46:37.792Z,77.29
2022-10-29T12:47:36.782Z,77.43
2022-10-29T12:48:36.753Z,79.49
2022-10-29T12:49:36.743Z,78.59
2022-10-29T12:50:36.724Z,78.39
2022-10-29T12:51:36.723Z,78.09
2022-10-29T12:52:36.724Z,77.09
2022-10-29T12:53:36.702Z,77.39
2022-10-29T12:54:36.673Z,77.69
2022-10-29T12:55:36.667Z,77.39
2022-10-29T12:56:36.683Z,79.25
2022-10-29T12:57:36.652Z,77.66
2022-10-29T12:58:36.623Z,77.66
2022-10-29T12:59:36.625Z,76.82
2022-10-29T13:00:36.607Z,78.22